Time;durP1;ratioP1;P1;durP2;ratioP2;P2;SDS_P1;SDS_P2;PMS_P1;PMS_P2;Temp;Humidity;BMP_temperature;BMP_pressure;BME280_temperature;BME280_humidity;BME280_pressure;Samples;Min_cycle;Max_cycle;Signal;HPM_P1;HPM_P2
2022/04/17 00:00:27;;;;;;;8.40;6.35;;;;;;;4.05;66.99;99472.94;6081334;23;20006;-86
2022/04/17 00:02:52;;;;;;;;;;;;;;;4.10;65.08;99472.16;6207931;23;20462;-84
2022/04/17 00:05:18;;;;;;;9.60;7.45;;;;;;;3.84;66.07;99446.84;6128365;23;19963;-84
2022/04/17 00:07:45;;;;;;;9.35;6.78;;;;;;;3.91;66.22;99448.72;6127672;23;20041;-84
2022/04/17 00:10:11;;;;;;;8.23;6.00;;;;;;;4.02;66.25;99472.00;6205979;23;20013;-84
2022/04/17 00:12:39;;;;;;;8.70;6.43;;;;;;;3.96;66.17;99475.31;6104346;23;20018;-85
2022/04/17 00:15:06;;;;;;;9.10;5.88;;;;;;;3.92;66.37;99464.97;6129561;23;20010;-84
2022/04/17 00:17:32;;;;;;;9.35;5.63;;;;;;;3.91;66.58;99458.13;6080241;23;20037;-84
2022/04/17 00:19:58;;;;;;;7.95;5.30;;;;;;;3.88;66.13;99447.78;6103689;23;20010;-85
2022/04/17 00:22:25;;;;;;;8.02;4.68;;;;;;;3.79;66.25;99443.34;6127955;23;20017;-85
2022/04/17 00:24:52;;;;;;;6.03;3.92;;;;;;;3.95;66.57;99453.06;6079309;23;20010;-84
2022/04/17 00:27:18;;;;;;;5.75;3.85;;;;;;;3.91;66.12;99453.84;6056820;23;20513;-84
2022/04/17 00:29:44;;;;;;;;;;;;;;;4.00;66.41;99456.59;6079700;23;20453;-84
2022/04/17 00:32:13;;;;;;;4.53;3.15;;;;;;;3.92;65.79;99434.19;6128679;23;19913;-84
2022/04/17 00:34:39;;;;;;;5.07;3.40;;;;;;;3.91;65.76;99407.66;6078566;23;20010;-84
2022/04/17 00:37:05;;;;;;;4.07;2.85;;;;;;;3.96;65.43;99438.53;6077770;23;20082;-84
2022/04/17 00:39:31;;;;;;;3.90;2.97;;;;;;;4.01;65.26;99449.75;6205169;23;20006;-84
2022/04/17 00:41:59;;;;;;;;;;;;;;;4.05;65.25;99449.84;6153465;23;20022;-84
2022/04/17 00:44:26;;;;;;;4.00;2.40;;;;;;;3.98;64.89;99445.41;6129779;23;20332;-84
2022/04/17 00:46:53;;;;;;;3.40;2.65;;;;;;;3.92;64.37;99441.88;6059568;23;20022;-84
2022/04/17 00:49:19;;;;;;;3.63;2.70;;;;;;;3.91;64.39;99453.84;6081523;23;20010;-84
2022/04/17 00:51:47;;;;;;;3.95;2.90;;;;;;;3.70;65.50;99438.03;6080881;23;20018;-83
2022/04/17 00:54:14;;;;;;;3.85;2.55;;;;;;;3.87;65.72;99454.63;6081698;23;20089;-84
2022/04/17 00:56:41;;;;;;;3.88;2.67;;;;;;;3.87;65.20;99456.31;6056000;23;20101;-83
2022/04/17 00:59:09;;;;;;;3.38;2.53;;;;;;;3.95;64.80;99465.03;6130997;23;20005;-84
2022/04/17 01:01:36;;;;;;;3.80;2.40;;;;;;;3.86;64.81;99444.34;6105963;23;20022;-83
2022/04/17 01:04:04;;;;;;;2.80;2.20;;;;;;;3.97;64.85;99469.34;6206749;23;20056;-84
2022/04/17 01:06:33;;;;;;;2.95;2.15;;;;;;;4.01;64.94;99452.31;6102995;23;20049;-84
2022/04/17 01:09:00;;;;;;;3.38;2.38;;;;;;;3.78;63.78;99472.41;6126805;23;20013;-84
2022/04/17 01:11:26;;;;;;;3.10;2.05;;;;;;;3.89;65.44;99470.91;6103739;23;20022;-83
2022/04/17 01:13:53;;;;;;;3.47;2.15;;;;;;;3.94;64.31;99451.34;6128902;23;20002;-84
2022/04/17 01:16:20;;;;;;;4.30;2.60;;;;;;;3.86;63.66;99465.72;6103468;23;20021;-83
2022/04/17 01:18:52;;;;;;;4.13;2.17;;;;;;;3.82;63.38;99462.22;6151611;23;20028;-84
2022/04/17 01:21:18;;;;;;;4.57;2.22;;;;;;;3.70;64.22;99443.16;6102315;23;20022;-83
2022/04/17 01:26:58;;;;;;;4.40;2.00;;;;;;;3.89;64.14;99455.50;6042664;23;20429;-84
2022/04/17 01:29:31;;;;;;;3.25;1.85;;;;;;;3.91;63.40;99458.97;6109271;23;20018;-84
2022/04/17 01:31:59;;;;;;;3.50;2.00;;;;;;;3.83;63.50;99460.53;6130340;23;20018;-83
2022/04/17 01:34:25;;;;;;;2.80;1.80;;;;;;;3.84;63.04;99469.94;6205675;23;20438;-84
2022/04/17 01:36:51;;;;;;;2.40;1.80;;;;;;;3.81;63.76;99451.94;6128244;23;20022;-87
2022/04/17 01:39:18;;;;;;;3.05;1.85;;;;;;;3.77;63.59;99458.72;6151856;23;20010;-84
2022/04/17 01:41:45;;;;;;;3.78;1.92;;;;;;;3.71;62.65;99465.41;6079022;23;20105;-83
2022/04/17 01:44:11;;;;;;;3.92;2.10;;;;;;;3.52;64.24;99465.03;6126272;23;20017;-83
2022/04/17 01:46:37;;;;;;;3.33;1.95;;;;;;;3.29;64.82;99453.41;6179411;23;20509;-85
2022/04/17 01:49:06;;;;;;;3.10;2.05;;;;;;;3.22;65.34;99446.44;6080210;23;20017;-85
2022/04/17 01:51:38;;;;;;;4.63;2.20;;;;;;;3.28;65.28;99461.94;6080638;23;20022;-85
2022/04/17 01:54:14;;;;;;;5.18;3.05;;;;;;;3.35;65.29;99466.38;6079707;23;20097;-84
2022/04/17 01:56:40;;;;;;;3.72;1.85;;;;;;;3.34;66.12;99454.38;6128767;23;20105;-84
2022/04/17 01:59:06;;;;;;;4.38;2.15;;;;;;;3.51;65.78;99458.16;6078512;23;20006;-84
2022/04/17 02:01:34;;;;;;;3.22;2.08;;;;;;;3.56;65.35;99454.00;6053822;23;20029;-84
2022/04/17 02:04:01;;;;;;;3.45;2.00;;;;;;;3.61;65.05;99466.06;6206687;23;20460;-84
2022/04/17 02:06:27;;;;;;;3.28;2.05;;;;;;;3.42;64.35;99473.34;6199075;23;20039;-84
2022/04/17 02:08:53;;;;;;;3.10;2.00;;;;;;;3.26;66.42;99454.22;6224886;23;20054;-84
2022/04/17 02:11:19;;;;;;;;;;;;;;;3.41;65.88;99474.19;6199865;23;20038;-85
2022/04/17 02:13:45;;;;;;;3.58;2.05;;;;;;;3.25;66.13;99464.44;6225858;23;19907;-85
2022/04/17 02:16:11;;;;;;;2.30;1.70;;;;;;;3.26;66.13;99464.50;6225026;23;20097;-84
2022/04/17 02:18:37;;;;;;;5.18;1.92;;;;;;;3.14;66.12;99471.91;6248783;23;20008;-83
2022/04/17 02:21:03;;;;;;;3.13;2.03;;;;;;;3.15;67.02;99455.69;6199563;23;20024;-84
2022/04/17 02:23:28;;;;;;;;;;;;;;;3.33;66.79;99468.03;6252268;23;20020;-83
2022/04/17 02:25:55;;;;;;;2.72;1.67;;;;;;;3.39;66.55;99470.75;6224400;23;19914;-84
2022/04/17 02:28:21;;;;;;;4.18;1.77;;;;;;;3.40;66.02;99477.59;6201191;23;20023;-84
2022/04/17 02:30:48;;;;;;;3.78;2.10;;;;;;;3.33;65.89;99475.72;6225744;23;20023;-84
2022/04/17 02:33:14;;;;;;;;;;;;;;;3.42;65.60;99483.63;6226912;23;20003;-83
2022/04/17 02:35:40;;;;;;;2.53;1.83;;;;;;;3.31;65.65;99478.25;6226796;23;20305;-84
2022/04/17 02:38:05;;;;;;;3.58;2.17;;;;;;;3.25;66.29;99487.50;6201488;23;20055;-83
2022/04/17 02:40:31;;;;;;;6.88;4.82;;;;;;;3.26;66.35;99491.81;6251808;23;20016;-84
2022/04/17 02:42:59;;;;;;;;;;;;;;;3.35;66.29;99493.72;6227210;23;20020;-84
2022/04/17 02:45:28;;;;;;;3.55;1.83;;;;;;;3.05;65.24;99472.53;6225950;23;19986;-85
2022/04/17 02:47:54;;;;;;;3.13;2.08;;;;;;;2.91;66.33;99488.44;6226791;23;20027;-84
2022/04/17 02:50:22;;;;;;;4.38;2.10;;;;;;;2.72;67.14;99482.88;6225448;23;20008;-83
2022/04/17 02:52:48;;;;;;;3.85;2.10;;;;;;;2.68;67.78;99488.75;6200780;23;20448;-84
2022/04/17 02:55:14;;;;;;;3.22;2.25;;;;;;;2.59;68.60;99474.84;6200605;23;20007;-83
2022/04/17 02:57:40;;;;;;;;;;;;;;;2.87;69.39;99490.06;6251934;23;20015;-84
2022/04/17 03:00:07;;;;;;;6.38;2.00;;;;;;;2.78;68.26;99490.69;6226338;23;19907;-84
2022/04/17 03:05:37;;;;;;;3.13;2.10;;;;;;;2.86;69.05;99500.28;6082097;23;20028;-84
2022/04/17 03:08:04;;;;;;;3.25;2.25;;;;;;;2.81;67.78;99500.16;6104382;23;20035;-84
2022/04/17 03:10:31;;;;;;;2.72;1.63;;;;;;;2.86;67.83;99490.03;6102465;23;20013;-85
2022/04/17 03:12:57;;;;;;;3.25;2.20;;;;;;;2.98;66.80;99506.56;6101030;23;20014;-83
2022/04/17 03:15:23;;;;;;;3.15;1.77;;;;;;;3.04;67.24;99504.13;6077690;23;20006;-83
2022/04/17 03:17:49;;;;;;;;;;;;;;;3.26;67.33;99522.59;6102723;23;20520;-84
2022/04/17 03:20:14;;;;;;;4.47;3.20;;;;;;;3.07;65.52;99526.41;6125423;23;19913;-85
2022/04/17 03:22:41;;;;;;;;;;;;;;;3.07;66.45;99526.41;6078058;23;20097;-84
2022/04/17 03:25:08;;;;;;;2.65;2.08;;;;;;;2.71;66.74;99529.81;6101885;23;20340;-84
2022/04/17 03:27:33;;;;;;;3.78;1.80;;;;;;;2.83;67.93;99536.91;6101336;23;20022;-84
2022/04/17 03:29:59;;;;;;;3.10;2.00;;;;;;;2.70;67.41;99520.41;6103649;23;20025;-84
2022/04/17 03:32:26;;;;;;;2.83;2.00;;;;;;;2.62;67.30;99511.66;6078937;23;20014;-85
2022/04/17 03:34:52;;;;;;;4.53;2.13;;;;;;;2.76;67.74;99528.22;6077439;23;19998;-84
2022/04/17 03:37:19;;;;;;;3.63;1.90;;;;;;;2.71;67.53;99519.56;6101116;23;20021;-84
2022/04/17 03:39:46;;;;;;;3.60;1.90;;;;;;;2.64;66.96;99527.91;6077503;23;20330;-85
2022/04/17 03:42:14;;;;;;;4.65;1.85;;;;;;;2.68;67.92;99526.31;6101471;23;20025;-84
2022/04/17 03:44:41;;;;;;;4.18;1.60;;;;;;;2.75;67.47;99523.09;6102226;23;20010;-84
2022/04/17 03:47:07;;;;;;;2.50;1.60;;;;;;;2.67;67.72;99504.94;6102249;23;20093;-84
2022/04/17 03:49:34;;;;;;;2.35;1.58;;;;;;;2.85;67.04;99511.38;6079274;23;20089;-86
2022/04/17 03:52:00;;;;;;;2.95;1.60;;;;;;;2.78;67.13;99528.25;6103882;23;20320;-84
2022/04/17 03:54:27;;;;;;;4.32;1.77;;;;;;;2.77;67.01;99516.28;6078827;23;20010;-83
2022/04/17 03:56:54;;;;;;;3.58;1.48;;;;;;;2.88;67.22;99522.53;6078915;23;20458;-84
2022/04/17 03:59:21;;;;;;;2.75;1.70;;;;;;;2.74;65.87;99524.75;6103873;23;20085;-83
2022/04/17 04:01:47;;;;;;;3.78;1.90;;;;;;;2.72;66.84;99538.38;6077625;23;20100;-84
2022/04/17 04:04:14;;;;;;;2.70;1.80;;;;;;;2.53;67.13;99543.00;6078307;23;20025;-84
2022/04/17 04:06:41;;;;;;;2.90;1.77;;;;;;;2.64;67.46;99550.09;6125772;23;20025;-84
2022/04/17 04:09:07;;;;;;;3.97;1.90;;;;;;;2.76;66.81;99550.41;6101026;23;20022;-84
2022/04/17 04:11:32;;;;;;;3.00;1.80;;;;;;;2.79;66.88;99556.50;6100276;23;20104;-84
2022/04/17 04:13:58;;;;;;;2.80;1.75;;;;;;;2.71;66.44;99554.56;6125016;23;20021;-84
2022/04/17 04:16:24;;;;;;;4.18;1.83;;;;;;;2.65;66.38;99554.38;6126241;23;20005;-83
2022/04/17 04:18:50;;;;;;;;;;;;;;;2.53;66.43;99554.94;6101637;23;20022;-85
2022/04/17 04:21:16;;;;;;;2.45;1.70;;;;;;;2.53;66.90;99550.69;6125572;23;19909;-85
2022/04/17 04:23:41;;;;;;;3.30;1.50;;;;;;;2.72;67.77;99548.59;6127156;23;20029;-84
2022/04/17 04:26:07;;;;;;;3.25;1.40;;;;;;;2.86;66.21;99548.94;6102385;23;20059;-85
2022/04/17 04:28:34;;;;;;;3.35;1.77;;;;;;;2.68;65.64;99544.22;6102597;23;20018;-83
2022/04/17 04:31:00;;;;;;;3.15;2.00;;;;;;;2.74;66.66;99547.81;6078378;23;20006;-84
2022/04/17 04:33:26;;;;;;;3.65;1.77;;;;;;;2.85;66.88;99550.66;6127997;23;20018;-84
2022/04/17 04:35:52;;;;;;;;;;;;;;;3.04;67.01;99555.38;6101572;23;20017;-84
2022/04/17 04:38:20;;;;;;;3.47;1.73;;;;;;;2.98;65.96;99534.75;6102285;23;19991;-83
2022/04/17 04:40:46;;;;;;;3.22;1.80;;;;;;;3.08;65.27;99558.03;6103009;23;20014;-84
2022/04/17 04:43:12;;;;;;;3.03;1.65;;;;;;;3.15;65.84;99565.88;6103510;23;20071;-85
2022/04/17 04:51:08;;;;;;;3.72;1.83;;;;;;;3.15;65.46;99565.88;6126216;23;20037;-84
2022/04/17 04:53:34;;;;;;;3.47;1.75;;;;;;;3.17;64.88;99556.56;6127923;23;20017;-83
2022/04/17 04:56:00;;;;;;;3.67;2.10;;;;;;;3.13;65.53;99538.50;6100381;23;20049;-83
2022/04/17 04:58:26;;;;;;;3.67;2.30;;;;;;;3.34;64.63;99569.75;6076540;23;20084;-83
2022/04/17 05:00:52;;;;;;;3.80;1.95;;;;;;;3.44;64.67;99565.72;6125630;23;20025;-84
2022/04/17 05:03:17;;;;;;;2.90;1.83;;;;;;;3.40;64.01;99572.47;6051386;23;20030;-85
2022/04/17 05:05:44;;;;;;;6.82;2.03;;;;;;;3.26;63.53;99559.34;6100109;23;20019;-84
2022/04/17 05:08:10;;;;;;;4.93;1.83;;;;;;;3.42;64.38;99581.06;6100706;23;20042;-83
2022/04/17 05:10:35;;;;;;;;;;;;;;;3.59;64.07;99583.16;6126436;23;20018;-84
2022/04/17 05:13:01;;;;;;;4.60;1.60;;;;;;;3.53;63.81;99586.44;6099861;23;20002;-84
2022/04/17 05:15:26;;;;;;;3.35;1.65;;;;;;;3.39;62.41;99568.19;6100258;23;20445;-84
2022/04/17 05:17:52;;;;;;;3.38;1.67;;;;;;;3.32;62.73;99574.00;6099889;23;20002;-83
2022/04/17 05:20:20;;;;;;;2.63;1.75;;;;;;;3.18;63.93;99565.09;6100365;23;20022;-83
2022/04/17 05:22:50;;;;;;;3.60;1.83;;;;;;;3.13;64.01;99570.13;6100085;23;20014;-84
2022/04/17 05:25:16;;;;;;;2.92;1.60;;;;;;;3.15;64.97;99559.91;6100506;23;20468;-84
2022/04/17 05:27:41;;;;;;;5.13;2.08;;;;;;;3.25;64.33;99566.97;6100049;23;20093;-84
2022/04/17 05:30:08;;;;;;;;;;;;;;;3.36;64.70;99568.09;6100318;23;20096;-84
2022/04/17 05:32:34;;;;;;;2.67;1.33;;;;;;;3.52;64.10;99565.03;6100374;23;19958;-85
2022/04/17 05:35:00;;;;;;;;;;;;;;;3.66;64.08;99567.06;6101642;23;20018;-83
2022/04/17 05:37:27;;;;;;;2.85;1.60;;;;;;;3.74;63.42;99556.13;6100831;23;19915;-83
2022/04/17 05:39:53;;;;;;;3.33;1.70;;;;;;;3.73;62.34;99553.53;6100070;23;20022;-84
2022/04/17 05:42:19;;;;;;;3.00;1.80;;;;;;;3.74;62.79;99561.25;6099837;23;20014;-85
2022/04/17 05:44:49;;;;;;;2.85;1.58;;;;;;;3.65;63.12;99537.97;6099666;23;20022;-84
2022/04/17 05:47:15;;;;;;;2.85;1.55;;;;;;;3.74;62.48;99552.69;6076798;23;20028;-84
2022/04/17 05:49:41;;;;;;;3.63;1.50;;;;;;;3.69;62.59;99546.59;6126472;23;20006;-84
2022/04/17 05:52:07;;;;;;;7.57;4.65;;;;;;;3.70;62.58;99558.59;6101304;23;20014;-87
2022/04/17 05:54:33;;;;;;;4.57;2.22;;;;;;;3.76;63.05;99566.44;6125122;23;20006;-86
2022/04/17 05:57:01;;;;;;;;;;;;;;;3.74;61.91;99570.66;6101365;23;20017;-84
2022/04/17 05:59:28;;;;;;;3.83;1.60;;;;;;;3.79;62.35;99574.19;6125028;23;20320;-87
2022/04/17 06:01:54;;;;;;;4.30;2.15;;;;;;;3.66;61.68;99580.75;6080032;23;20026;-83
2022/04/17 06:04:25;;;;;;;3.97;1.83;;;;;;;3.71;62.29;99594.56;6080483;23;20610;-85
2022/04/17 06:06:51;;;;;;;3.15;1.60;;;;;;;3.56;62.24;99589.94;6076753;23;20029;-85
2022/04/17 06:09:17;;;;;;;3.28;1.73;;;;;;;3.67;62.33;99594.47;6075216;23;20007;-86
2022/04/17 06:11:43;;;;;;;3.72;1.60;;;;;;;3.61;61.86;99576.34;6074002;23;20076;-85
2022/04/17 06:14:09;;;;;;;12.05;7.30;;;;;;;3.62;61.90;99593.47;6101948;23;20010;-88
2022/04/17 06:16:35;;;;;;;;;;;;;;;3.91;62.66;99610.38;6074132;23;20397;-85
2022/04/17 06:19:02;;;;;;;4.47;1.90;;;;;;;3.78;61.66;99580.16;6072021;23;19941;-85
2022/04/17 06:21:28;;;;;;;3.15;1.60;;;;;;;3.68;60.73;99602.19;6075130;23;20121;-86
2022/04/17 06:23:55;;;;;;;3.83;1.90;;;;;;;3.50;61.47;99612.88;6074737;23;20113;-83
2022/04/17 06:26:21;;;;;;;2.70;1.55;;;;;;;3.34;62.24;99590.25;6099838;23;20113;-84
2022/04/17 06:28:47;;;;;;;3.45;1.75;;;;;;;3.43;62.60;99585.34;6073793;23;20442;-85
2022/04/17 06:31:13;;;;;;;3.35;1.98;;;;;;;3.60;61.14;99601.13;6071320;23;20022;-83
2022/04/17 06:33:39;;;;;;;3.08;1.67;;;;;;;3.72;61.55;99613.38;6120405;23;20009;-85
2022/04/17 06:36:06;;;;;;;3.30;1.58;;;;;;;3.62;61.43;99591.78;6121094;23;20022;-84
2022/04/17 06:38:32;;;;;;;3.22;1.42;;;;;;;3.78;61.20;99621.22;6073854;23;20137;-86
2022/04/17 06:40:58;;;;;;;3.03;1.58;;;;;;;3.49;60.79;99623.97;6096013;23;20026;-85
2022/04/17 06:43:24;;;;;;;3.38;1.70;;;;;;;3.14;62.53;99610.31;6123988;23;20349;-84
2022/04/17 06:45:50;;;;;;;3.58;1.70;;;;;;;3.15;63.26;99612.03;6073701;23;20018;-84
2022/04/17 06:48:22;;;;;;;3.28;1.98;;;;;;;3.31;63.17;99639.78;6122029;23;20325;-82
2022/04/17 06:50:50;;;;;;;3.22;1.63;;;;;;;3.06;62.37;99638.28;6100786;23;20033;-82
2022/04/17 06:53:16;;;;;;;4.03;1.60;;;;;;;2.93;63.43;99630.25;6051699;23;20029;-85
2022/04/17 06:55:42;;;;;;;3.75;1.60;;;;;;;2.94;63.04;99622.63;6101253;23;20420;-86
2022/04/17 06:58:08;;;;;;;3.58;1.80;;;;;;;3.02;63.21;99651.00;6179622;23;20015;-84
2022/04/17 07:00:34;;;;;;;4.75;2.38;;;;;;;2.98;63.64;99636.38;6055570;23;20033;-84
2022/04/17 07:03:00;;;;;;;4.07;2.10;;;;;;;3.10;63.79;99623.00;6158826;23;20091;-88
2022/04/17 07:05:26;;;;;;;4.28;2.10;;;;;;;3.22;63.13;99646.38;6080522;23;20012;-84
2022/04/17 07:08:06;;;;;;;3.30;1.98;;;;;;;3.54;63.39;99636.91;6123836;23;20320;-83
2022/04/17 07:10:39;;;;;;;3.95;2.22;;;;;;;3.51;62.00;99629.13;6100725;23;20108;-83
2022/04/17 07:13:11;;;;;;;5.13;1.88;;;;;;;3.49;61.98;99654.75;6104628;23;20008;-83
2022/04/17 07:15:37;;;;;;;2.83;1.90;;;;;;;3.37;62.13;99633.94;6100942;23;20467;-86
2022/04/17 07:18:03;;;;;;;;;;;;;;;3.35;62.01;99661.25;6105668;23;20011;-86
2022/04/17 07:20:30;;;;;;;3.55;1.90;;;;;;;3.22;61.86;99656.66;6128237;23;19934;-84
2022/04/17 07:22:55;;;;;;;4.05;1.80;;;;;;;3.01;62.66;99628.75;6110129;23;19988;-86
2022/04/17 07:25:22;;;;;;;4.75;2.00;;;;;;;2.92;64.31;99639.63;6208493;23;20000;-87
2022/04/17 07:27:49;;;;;;;3.75;1.80;;;;;;;3.26;64.71;99650.75;6106098;23;20442;-86
2022/04/17 07:30:30;;;;;;;4.55;2.10;;;;;;;3.26;63.15;99643.94;6132828;23;20012;-85
2022/04/17 07:33:00;;;;;;;4.22;2.13;;;;;;;3.35;63.28;99651.00;6111400;23;20026;-85
2022/04/17 07:35:28;;;;;;;3.03;1.90;;;;;;;3.29;62.94;99632.88;6081966;23;20027;-86
2022/04/17 07:38:12;;;;;;;5.07;1.88;;;;;;;3.27;62.82;99632.84;6104685;23;20061;-87
2022/04/17 07:40:41;;;;;;;3.22;1.70;;;;;;;3.38;62.19;99663.88;6142418;23;20012;-86
2022/04/17 07:43:08;;;;;;;3.00;1.83;;;;;;;3.42;63.06;99663.13;6112250;23;20014;-87
2022/04/17 07:45:34;;;;;;;2.53;1.60;;;;;;;3.25;62.47;99643.88;6134144;23;20047;-87
2022/04/17 07:48:00;;;;;;;2.80;1.60;;;;;;;3.27;62.65;99668.75;6108433;23;20016;-88
2022/04/17 07:50:32;;;;;;;2.85;1.50;;;;;;;3.33;62.94;99662.88;6117033;23;20019;-86
2022/04/17 07:53:00;;;;;;;3.55;1.73;;;;;;;3.37;62.64;99667.25;6130670;23;20023;-86
2022/04/17 07:55:26;;;;;;;3.05;1.55;;;;;;;3.49;62.16;99679.53;6110949;23;20014;-88
2022/04/17 08:00:47;;;;;;;3.95;1.88;;;;;;;3.30;63.27;99693.59;6153625;23;20051;-86
2022/04/17 08:03:24;;;;;;;2.55;1.77;;;;;;;3.28;63.84;99690.97;6126354;23;20026;-84
2022/04/17 08:05:52;;;;;;;2.88;1.88;;;;;;;3.33;64.17;99691.09;6059567;23;20515;-86
2022/04/17 08:08:18;;;;;;;4.90;2.10;;;;;;;3.32;64.34;99668.84;6103265;23;20002;-88
2022/04/17 08:10:44;;;;;;;3.42;1.90;;;;;;;3.47;63.44;99686.31;6078775;23;20097;-86
2022/04/17 08:13:09;;;;;;;;;;;;;;;3.70;64.03;99699.69;6075553;23;20085;-82
2022/04/17 08:15:36;;;;;;;3.67;2.30;;;;;;;3.58;63.34;99690.03;6078612;23;20333;-89
2022/04/17 08:18:04;;;;;;;4.95;2.08;;;;;;;3.61;63.79;99692.63;6086160;23;20017;-86
2022/04/17 08:20:30;;;;;;;3.65;2.33;;;;;;;3.51;63.62;99673.59;6081949;23;19998;-85
2022/04/17 08:43:49;;;;;;;4.45;2.60;;;;;;;3.78;62.61;99680.22;6286603;22;20168;-81
2022/04/17 08:46:14;;;;;;;4.72;2.50;;;;;;;4.00;61.65;99690.16;6279829;22;20015;-78
2022/04/17 08:48:40;;;;;;;6.93;4.65;;;;;;;4.05;62.15;99688.56;6254236;22;20003;-78
2022/04/17 08:51:06;;;;;;;3.95;1.95;;;;;;;4.16;61.55;99678.50;6279789;22;20019;-77
2022/04/17 08:53:35;;;;;;;4.18;3.00;;;;;;;4.17;60.41;99698.25;6279546;22;19999;-80
2022/04/17 08:56:03;;;;;;;4.20;2.20;;;;;;;4.06;60.31;99682.56;6255047;22;20068;-81
2022/04/17 08:58:28;;;;;;;3.83;2.28;;;;;;;4.21;60.60;99704.28;6254423;22;20433;-78
2022/04/17 09:00:54;;;;;;;3.70;2.40;;;;;;;4.05;60.38;99683.41;6254474;22;20022;-79
2022/04/17 09:03:20;;;;;;;3.60;2.28;;;;;;;3.94;60.53;99697.72;6280429;22;20115;-82
2022/04/17 09:05:47;;;;;;;4.30;2.22;;;;;;;3.65;61.09;99681.63;6280682;22;20014;-79
2022/04/17 09:08:15;;;;;;;6.55;3.65;;;;;;;3.60;62.46;99682.34;6229796;22;20007;-79
2022/04/17 09:10:41;;;;;;;4.22;2.03;;;;;;;3.67;60.89;99713.34;6229650;22;20019;-81
2022/04/17 09:13:06;;;;;;;4.20;2.35;;;;;;;3.14;62.90;99717.09;6254317;22;20137;-78
2022/04/17 09:15:33;;;;;;;5.40;2.15;;;;;;;2.75;64.57;99712.63;6305546;22;20015;-78
2022/04/17 09:17:59;;;;;;;4.40;2.30;;;;;;;2.42;66.31;99712.50;6254790;22;20007;-80
2022/04/17 09:20:26;;;;;;;3.60;2.30;;;;;;;2.29;65.94;99704.50;6307930;22;20042;-78
2022/04/17 09:22:53;;;;;;;3.85;2.67;;;;;;;2.06;67.70;99708.03;6254406;22;20088;-78
2022/04/17 09:25:22;;;;;;;3.95;2.83;;;;;;;2.16;68.25;99722.88;6280892;22;20046;-79
2022/04/17 09:28:01;;;;;;;4.90;2.90;;;;;;;2.24;67.87;99713.69;6229601;22;20007;-79
2022/04/17 09:30:28;;;;;;;4.00;2.50;;;;;;;2.30;67.37;99725.84;6279274;22;20043;-80
2022/04/17 09:32:55;;;;;;;5.28;2.90;;;;;;;2.13;67.38;99709.97;6307000;22;20018;-81
2022/04/17 09:35:24;;;;;;;3.28;2.20;;;;;;;1.99;67.31;99696.75;6229924;22;20101;-78
2022/04/17 09:38:00;;;;;;;3.67;2.40;;;;;;;1.98;67.47;99720.59;6282954;22;20085;-76
2022/04/17 09:40:26;;;;;;;6.03;3.00;;;;;;;1.96;68.29;99701.75;6258434;22;20377;-79
2022/04/17 09:43:16;;;;;;;13.82;7.80;;;;;;;2.09;68.67;99736.28;6250759;22;20063;-77
2022/04/17 09:46:01;;;;;;;5.78;3.28;;;;;;;2.21;68.17;99740.91;6276658;22;20038;-77
2022/04/17 09:48:40;;;;;;;4.70;2.58;;;;;;;2.15;67.79;99731.34;6276158;22;20373;-77
2022/04/17 09:51:27;;;;;;;4.32;2.78;;;;;;;2.19;68.25;99734.88;6251163;22;20026;-78
2022/04/17 09:54:00;;;;;;;5.47;2.90;;;;;;;2.14;69.08;99742.41;6276162;22;20011;-78
2022/04/17 09:56:45;;;;;;;5.95;3.10;;;;;;;2.15;68.54;99722.78;6276203;22;20026;-79
2022/04/17 09:59:23;;;;;;;4.90;3.30;;;;;;;2.17;67.44;99724.59;6226136;22;20038;-77
2022/04/17 10:01:56;;;;;;;5.85;2.97;;;;;;;2.23;67.80;99729.03;6276251;22;20023;-77
2022/04/17 10:04:26;;;;;;;4.30;2.75;;;;;;;2.20;68.27;99741.72;6277445;22;20036;-78
2022/04/17 10:06:56;;;;;;;4.75;2.88;;;;;;;2.12;68.01;99722.72;6276493;22;20078;-76
2022/04/17 10:09:22;;;;;;;4.18;2.47;;;;;;;2.22;68.66;99756.31;6276906;22;20065;-80
2022/04/17 10:11:49;;;;;;;4.53;3.00;;;;;;;2.24;68.36;99759.78;6225539;22;20365;-78
2022/04/17 10:14:15;;;;;;;4.65;3.08;;;;;;;2.07;68.58;99737.94;6276347;22;20092;-79
2022/04/17 10:16:45;;;;;;;;;;;;;;;2.17;69.99;99747.63;6251824;22;20063;-81
2022/04/17 10:19:13;;;;;;;6.13;2.65;;;;;;;2.19;67.92;99729.75;6252042;22;19980;-78
2022/04/17 10:21:39;;;;;;;4.47;2.42;;;;;;;2.54;68.20;99751.28;6225469;22;20327;-79
2022/04/17 10:24:05;;;;;;;5.70;2.85;;;;;;;2.58;67.10;99724.09;6251015;22;20016;-81
2022/04/17 10:26:37;;;;;;;;;;;;;;;2.87;66.96;99747.94;6251108;22;20342;-79
2022/04/17 10:29:05;;;;;;;5.20;2.22;;;;;;;2.70;66.78;99716.72;6250650;22;19968;-79
2022/04/17 10:32:04;;;;;;;3.35;2.30;;;;;;;2.96;66.35;99745.66;6225234;22;20027;-80
2022/04/17 10:34:33;;;;;;;3.13;2.08;;;;;;;3.06;66.19;99750.19;6275678;22;20153;-80
2022/04/17 10:37:20;;;;;;;15.63;10.77;;;;;;;3.00;67.03;99748.34;6301680;22;20452;-78
2022/04/17 10:39:46;;;;;;;;;;;;;;;3.19;67.64;99752.25;6277677;22;20069;-77
2022/04/17 10:42:12;;;;;;;6.47;3.28;;;;;;;3.09;66.28;99734.03;6280672;22;20393;-79
2022/04/17 10:44:41;;;;;;;4.10;2.63;;;;;;;3.17;66.93;99753.06;6255412;22;20019;-81
2022/04/17 10:47:17;;;;;;;4.70;2.67;;;;;;;3.12;67.44;99739.25;6256717;22;20019;-79
2022/04/17 10:50:06;;;;;;;4.57;2.58;;;;;;;3.22;67.53;99754.06;6230707;22;20019;-78
2022/04/17 10:52:33;;;;;;;4.13;2.50;;;;;;;3.26;67.90;99723.41;6306700;22;20350;-82
2022/04/17 10:55:12;;;;;;;4.72;2.35;;;;;;;3.29;68.02;99732.84;6255803;22;20009;-77
2022/04/17 10:57:45;;;;;;;5.13;2.30;;;;;;;3.27;67.97;99737.09;6255255;22;20110;-77
2022/04/17 11:00:33;;;;;;;4.68;2.58;;;;;;;3.41;67.63;99730.63;6280829;22;20015;-81
2022/04/17 11:03:00;;;;;;;4.40;2.67;;;;;;;3.36;67.51;99724.50;6308402;22;20102;-79
2022/04/17 11:08:26;;;;;;;4.95;2.90;;;;;;;3.56;66.83;99733.56;6285385;22;20469;-79
2022/04/17 11:11:02;;;;;;;5.20;2.60;;;;;;;3.54;66.25;99735.25;6307989;22;20029;-79
2022/04/17 11:13:28;;;;;;;3.30;2.10;;;;;;;3.47;66.87;99733.34;6256300;22;20064;-77
2022/04/17 11:15:57;;;;;;;5.30;2.10;;;;;;;3.37;65.74;99721.13;6280776;22;20007;-79
2022/04/17 11:18:24;;;;;;;3.65;2.35;;;;;;;3.35;65.62;99721.91;6280598;22;20038;-79
2022/04/17 11:20:53;;;;;;;4.13;2.50;;;;;;;3.47;66.01;99733.34;6280810;22;20426;-80
2022/04/17 11:23:47;;;;;;;3.72;2.30;;;;;;;3.48;64.67;99737.66;6280792;22;20019;-79
2022/04/17 11:26:16;;;;;;;3.95;2.50;;;;;;;3.38;65.07;99722.84;6280730;22;20051;-81
2022/04/17 11:28:41;;;;;;;3.60;2.13;;;;;;;3.34;63.77;99730.41;6280826;22;20007;-77
2022/04/17 11:31:07;;;;;;;4.47;2.13;;;;;;;3.29;64.02;99727.72;6230646;22;20022;-83
2022/04/17 11:33:33;;;;;;;5.15;2.10;;;;;;;3.17;64.47;99718.03;6281193;22;20410;-81
2022/04/17 11:36:00;;;;;;;4.57;2.20;;;;;;;3.33;63.94;99751.75;6281071;22;20106;-80
2022/04/17 11:38:26;;;;;;;5.38;2.50;;;;;;;3.12;64.36;99723.88;6255719;22;20003;-80
2022/04/17 11:40:52;;;;;;;3.25;2.30;;;;;;;3.39;64.56;99734.84;6255708;22;20076;-80
2022/04/17 11:43:18;;;;;;;3.83;2.25;;;;;;;3.50;64.15;99741.13;6280426;22;20023;-78
2022/04/17 11:45:46;;;;;;;3.90;2.17;;;;;;;3.50;63.46;99723.16;6281113;22;20015;-79
2022/04/17 11:48:17;;;;;;;9.82;6.25;;;;;;;3.58;63.91;99717.38;6281422;22;20072;-81
2022/04/17 11:50:43;;;;;;;3.83;2.38;;;;;;;3.70;63.63;99725.34;6279605;22;20101;-80
2022/04/17 11:53:13;;;;;;;5.00;2.60;;;;;;;3.58;63.35;99709.69;6307517;22;20007;-82
2022/04/17 11:55:43;;;;;;;4.13;2.38;;;;;;;3.74;62.81;99724.59;6255971;22;20022;-82
2022/04/17 11:58:33;;;;;;;4.18;2.50;;;;;;;3.31;62.85;99680.81;6255042;22;20019;-78
2022/04/17 12:01:01;;;;;;;5.38;2.22;;;;;;;3.27;63.72;99679.00;6258320;22;20022;-80
2022/04/17 12:03:37;;;;;;;7.82;2.28;;;;;;;3.45;64.27;99709.38;6229532;22;20011;-79
2022/04/17 12:06:04;;;;;;;6.72;2.30;;;;;;;3.49;63.73;99711.19;6253958;22;20018;-80
2022/04/17 12:08:37;;;;;;;4.82;2.40;;;;;;;3.55;64.41;99713.03;6254960;22;20007;-80
2022/04/17 12:11:06;;;;;;;4.28;2.50;;;;;;;3.55;63.07;99711.31;6254360;22;20014;-79
2022/04/17 12:13:32;;;;;;;4.47;2.30;;;;;;;3.56;63.73;99710.47;6307255;22;20426;-79
2022/04/17 12:15:59;;;;;;;5.30;2.55;;;;;;;3.58;63.82;99714.81;6280288;22;20022;-79
2022/04/17 12:18:25;;;;;;;3.88;2.50;;;;;;;3.54;63.49;99699.34;6307625;22;20007;-81
2022/04/17 12:21:07;;;;;;;5.65;2.38;;;;;;;3.52;63.72;99711.22;6279738;22;20045;-80
2022/04/17 12:23:33;;;;;;;5.22;2.60;;;;;;;3.36;64.17;99688.63;6255692;22;20025;-79
2022/04/17 12:25:59;;;;;;;4.55;2.30;;;;;;;3.23;63.95;99676.31;6280099;22;20035;-80
2022/04/17 12:28:25;;;;;;;5.13;2.22;;;;;;;3.36;64.63;99719.38;6279868;22;20015;-80